Time;durP1;ratioP1;P1;durP2;ratioP2;P2;SDS_P1;SDS_P2;PMS_P1;PMS_P2;Temp;Humidity;BMP_temperature;BMP_pressure;BME280_temperature;BME280_humidity;BME280_pressure;Samples;Min_cycle;Max_cycle;Signal;HPM_P1;HPM_P2
2023/01/19 00:01:25;;;;;;;8.90;5.60;;;-1.10;1.00;;;;;;5011783;28;20198;-80
2023/01/19 00:03:51;;;;;;;7.17;5.37;;;-1.10;1.00;;;;;;5009888;28;20661;-79
2023/01/19 00:06:16;;;;;;;6.37;4.70;;;-0.90;1.00;;;;;;5010258;28;20238;-80
2023/01/19 00:08:47;;;;;;;5.73;4.70;;;-0.90;1.00;;;;;;5008950;28;20184;-80
2023/01/19 00:11:13;;;;;;;7.07;4.73;;;-1.00;1.00;;;;;;5009263;28;20673;-79
2023/01/19 00:13:39;;;;;;;7.53;4.87;;;-1.10;1.00;;;;;;5007539;28;20214;-79
2023/01/19 00:16:06;;;;;;;7.13;4.63;;;-1.20;1.00;;;;;;5007771;28;20217;-79
2023/01/19 00:18:32;;;;;;;8.83;5.77;;;-1.20;1.00;;;;;;5006431;28;20183;-79
2023/01/19 00:20:58;;;;;;;8.93;4.90;;;-1.30;1.00;;;;;;5008414;28;20291;-80
2023/01/19 00:23:24;;;;;;;7.33;5.13;;;-1.40;1.00;;;;;;5008539;28;20287;-80
2023/01/19 00:25:50;;;;;;;7.33;5.13;;;-1.40;1.00;;;;;;5007789;28;20673;-79
2023/01/19 00:28:17;;;;;;;6.83;4.90;;;-1.40;1.00;;;;;;5008960;28;20183;-79
2023/01/19 00:30:43;;;;;;;7.63;5.40;;;-1.40;1.00;;;;;;5008803;28;20186;-79
2023/01/19 00:33:12;;;;;;;7.43;5.07;;;-1.30;1.00;;;;;;5007691;28;20191;-80
2023/01/19 00:35:38;;;;;;;8.33;5.33;;;-1.30;1.00;;;;;;5008090;28;20275;-80
2023/01/19 00:38:03;;;;;;;9.20;5.03;;;-1.10;1.00;;;;;;5008774;28;20695;-80
2023/01/19 00:40:29;;;;;;;7.53;5.00;;;-1.00;1.00;;;;;;5009161;28;20183;-79
2023/01/19 00:42:54;;;;;;;8.27;5.00;;;-1.00;1.00;;;;;;5007690;28;20498;-79
2023/01/19 00:45:22;;;;;;;7.57;4.63;;;-0.80;1.00;;;;;;5009823;28;20219;-80
2023/01/19 00:47:53;;;;;;;7.63;4.80;;;-0.70;1.00;;;;;;5010292;28;20203;-80
2023/01/19 00:50:19;;;;;;;7.23;4.57;;;-0.60;1.00;;;;;;5009488;28;20184;-80
2023/01/19 00:52:45;;;;;;;6.63;4.60;;;-0.60;1.00;;;;;;5009403;28;20195;-79
2023/01/19 00:55:13;;;;;;;8.87;4.90;;;-0.50;99.90;;;;;;5009146;28;20522;-80
2023/01/19 00:57:40;;;;;;;6.70;4.60;;;-0.50;1.00;;;;;;5007190;28;20188;-80
2023/01/19 01:00:10;;;;;;;6.03;4.80;;;-0.40;1.00;;;;;;5007737;28;20183;-79
2023/01/19 01:02:37;;;;;;;7.40;4.70;;;-0.30;1.00;;;;;;5009274;28;20180;-79
2023/01/19 01:05:04;;;;;;;6.33;4.53;;;-0.20;1.00;;;;;;5008029;28;20263;-80
2023/01/19 01:07:39;;;;;;;7.23;4.70;;;-0.10;1.00;;;;;;5009201;28;20186;-80
2023/01/19 01:10:25;;;;;;;9.00;5.17;;;-0.10;1.00;;;;;;5010058;28;20175;-80
2023/01/19 01:12:51;;;;;;;6.87;3.83;;;0.00;1.00;;;;;;5007759;28;20654;-79
2023/01/19 01:15:17;;;;;;;6.43;4.00;;;0.10;1.00;;;;;;5008620;28;20200;-80
2023/01/19 01:17:46;;;;;;;6.90;4.23;;;0.10;1.00;;;;;;5009248;28;20266;-80
2023/01/19 01:20:17;;;;;;;6.03;4.33;;;0.00;1.00;;;;;;5008572;28;20225;-78
2023/01/19 01:22:49;;;;;;;5.80;4.30;;;0.00;1.00;;;;;;5009524;28;20188;-80
2023/01/19 01:25:16;;;;;;;6.27;4.20;;;-0.10;1.00;;;;;;5009024;28;20215;-79
2023/01/19 01:27:42;;;;;;;5.83;3.97;;;0.00;1.00;;;;;;5009147;28;20179;-80
2023/01/19 01:30:10;;;;;;;6.70;4.23;;;0.00;1.00;;;;;;5007619;28;20535;-78
2023/01/19 01:32:36;;;;;;;6.03;4.00;;;0.00;1.00;;;;;;5008458;28;20261;-79
2023/01/19 01:35:02;;;;;;;8.10;3.87;;;0.00;1.00;;;;;;5008855;28;20199;-78
2023/01/19 01:37:27;;;;;;;5.80;3.53;;;0.00;1.00;;;;;;5008633;28;20183;-79
2023/01/19 01:39:53;;;;;;;7.77;4.00;;;0.10;1.00;;;;;;5010180;28;20187;-79
2023/01/19 01:42:24;;;;;;;5.50;3.57;;;0.10;1.00;;;;;;5008857;28;20199;-79
2023/01/19 01:44:52;;;;;;;4.57;3.50;;;0.20;1.00;;;;;;5009031;28;20184;-80
2023/01/19 01:47:38;;;;;;;6.37;3.70;;;0.30;1.00;;;;;;5007905;28;20211;-80
2023/01/19 01:50:23;;;;;;;7.17;3.90;;;0.50;1.00;;;;;;5008782;28;20184;-78
2023/01/19 01:53:06;;;;;;;7.03;3.50;;;0.50;1.00;;;;;;5007797;28;20489;-79
2023/01/19 01:55:40;;;;;;;5.37;3.27;;;0.60;1.00;;;;;;5007315;28;20207;-79
2023/01/19 01:58:08;;;;;;;6.53;3.50;;;0.70;1.00;;;;;;5008295;28;20179;-80
2023/01/19 02:02:49;;;;;;;5.03;3.93;;;0.60;1.00;;;;;;5007358;28;20544;-79
2023/01/19 02:03:21;;;;;;;4.93;3.33;;;0.70;1.00;;;;;;5008793;28;20194;-80
2023/01/19 02:05:47;;;;;;;5.73;3.67;;;-0.50;1.00;;;;;;5006710;28;20215;-80
2023/01/19 02:13:55;;;;;;;5.40;3.50;;;0.60;1.00;;;;;;5007926;28;20234;-80
2023/01/19 02:16:20;;;;;;;5.43;3.90;;;0.50;1.00;;;;;;5008551;28;20207;-80
2023/01/19 02:18:46;;;;;;;4.90;3.63;;;0.50;1.00;;;;;;5007829;28;20199;-80
2023/01/19 02:21:48;;;;;;;4.43;3.67;;;0.50;1.00;;;;;;5009367;28;20215;-80
2023/01/19 02:24:14;;;;;;;4.93;3.37;;;0.40;1.00;;;;;;5007634;28;20277;-80
2023/01/19 02:26:43;;;;;;;5.37;3.60;;;0.30;1.00;;;;;;5008087;28;20280;-80
2023/01/19 02:29:20;;;;;;;4.97;3.60;;;0.30;1.00;;;;;;5008326;28;20199;-80
2023/01/19 02:31:46;;;;;;;4.53;3.37;;;0.30;1.00;;;;;;5009011;28;20214;-80
2023/01/19 02:34:15;;;;;;;3.27;2.97;;;0.20;1.00;;;;;;5007912;28;20654;-81
2023/01/19 02:37:10;;;;;;;6.30;3.23;;;0.20;1.00;;;;;;5008104;28;20211;-80
2023/01/19 02:39:41;;;;;;;4.37;3.27;;;0.20;1.00;;;;;;5007732;28;20718;-80
2023/01/19 02:42:25;;;;;;;4.53;2.97;;;0.40;1.00;;;;;;5008606;28;20214;-79
2023/01/19 02:44:53;;;;;;;3.77;3.37;;;0.30;1.00;;;;;;5008549;28;20207;-80
2023/01/19 02:47:19;;;;;;;3.83;3.20;;;0.30;1.00;;;;;;5009113;28;20215;-81
2023/01/19 02:49:53;;;;;;;5.40;4.53;;;0.30;1.00;;;;;;5008378;28;20653;-80
2023/01/19 02:52:19;;;;;;;5.73;3.53;;;0.30;1.00;;;;;;5009252;28;20268;-80
2023/01/19 02:54:59;;;;;;;7.17;3.60;;;0.40;1.00;;;;;;5008871;28;20184;-78
2023/01/19 02:57:48;;;;;;;4.53;3.87;;;0.40;1.00;;;;;;5011840;28;20306;-79
2023/01/19 03:00:43;;;;;;;5.23;3.60;;;0.40;1.00;;;;;;5009767;28;20234;-80
2023/01/19 03:03:20;;;;;;;6.57;3.80;;;0.40;1.00;;;;;;5010236;28;20187;-80
2023/01/19 03:06:07;;;;;;;5.93;3.83;;;0.50;1.00;;;;;;5010960;28;20545;-81
2023/01/19 03:08:46;;;;;;;5.07;3.40;;;0.50;1.00;;;;;;5011562;28;20183;-80
2023/01/19 03:11:12;;;;;;;5.13;4.40;;;0.50;1.00;;;;;;5012137;28;20506;-81
2023/01/19 03:14:02;;;;;;;5.37;3.90;;;0.50;1.00;;;;;;5028550;28;20230;-80
2023/01/19 03:16:39;;;;;;;4.87;3.80;;;0.50;1.00;;;;;;5012668;28;20221;-79
2023/01/19 03:19:18;;;;;;;4.57;3.53;;;0.50;1.00;;;;;;5012652;28;20191;-79
2023/01/19 03:21:48;;;;;;;4.90;4.13;;;0.40;1.00;;;;;;5013324;28;20199;-80
2023/01/19 03:24:16;;;;;;;5.93;4.03;;;0.40;1.00;;;;;;5013786;28;20226;-81
2023/01/19 03:26:48;;;;;;;5.93;3.77;;;0.30;1.00;;;;;;5012699;28;20235;-81
2023/01/19 03:29:16;;;;;;;5.53;4.07;;;0.30;1.00;;;;;;5013666;28;20657;-80
2023/01/19 03:31:45;;;;;;;5.23;3.93;;;0.20;1.00;;;;;;5012544;28;20245;-80
2023/01/19 03:34:13;;;;;;;5.97;3.90;;;0.10;1.00;;;;;;5012912;28;20180;-81
2023/01/19 03:36:46;;;;;;;6.53;4.17;;;0.10;1.00;;;;;;5012737;28;20207;-79
2023/01/19 03:39:16;;;;;;;8.70;4.50;;;0.10;1.00;;;;;;5013059;28;20195;-80
2023/01/19 03:41:43;;;;;;;4.73;3.70;;;0.00;1.00;;;;;;5012895;28;20210;-79
2023/01/19 03:44:10;;;;;;;5.63;4.23;;;0.00;1.00;;;;;;5010845;28;20188;-79
2023/01/19 03:46:37;;;;;;;5.77;4.20;;;-0.10;1.00;;;;;;5026837;28;20219;-79
2023/01/19 03:49:02;;;;;;;5.23;4.33;;;-0.30;1.00;;;;;;5012573;28;20206;-80
2023/01/19 03:51:28;;;;;;;6.73;4.70;;;-0.20;1.00;;;;;;5013261;28;20187;-80
2023/01/19 03:53:54;;;;;;;6.87;4.30;;;-0.20;1.00;;;;;;5013315;28;20184;-80
2023/01/19 03:56:24;;;;;;;5.43;4.10;;;-0.20;1.00;;;;;;5013753;28;20898;-80
2023/01/19 03:58:50;;;;;;;5.93;4.60;;;-0.20;1.00;;;;;;5013144;28;20192;-80
2023/01/19 04:01:19;;;;;;;6.30;4.53;;;-0.20;1.00;;;;;;5012182;28;20195;-80
2023/01/19 04:03:46;;;;;;;5.23;3.80;;;-0.20;1.00;;;;;;5012587;28;20195;-79
2023/01/19 04:06:11;;;;;;;6.13;4.17;;;-0.20;1.00;;;;;;5012752;28;20229;-80
2023/01/19 04:08:37;;;;;;;5.37;3.90;;;0.00;1.00;;;;;;5013398;28;20700;-80
2023/01/19 04:11:03;;;;;;;5.60;4.77;;;0.10;1.00;;;;;;5009542;28;20430;-80
2023/01/19 04:13:29;;;;;;;5.47;3.87;;;0.30;1.00;;;;;;5010232;28;20191;-79
2023/01/19 04:15:59;;;;;;;7.57;4.03;;;0.20;1.00;;;;;;5012596;28;20222;-80
2023/01/19 04:18:25;;;;;;;6.10;3.60;;;0.20;1.00;;;;;;5012058;28;20198;-80
2023/01/19 04:20:50;;;;;;;8.77;3.83;;;0.20;1.00;;;;;;5011784;28;20263;-79
2023/01/19 04:23:16;;;;;;;5.83;4.00;;;0.20;1.00;;;;;;5012587;28;20199;-80
2023/01/19 04:25:41;;;;;;;4.60;3.57;;;0.10;1.00;;;;;;5011909;28;20226;-80
2023/01/19 04:28:07;;;;;;;5.77;3.70;;;0.20;1.00;;;;;;5011866;28;20184;-80
2023/01/19 04:30:32;;;;;;;5.73;3.90;;;0.20;1.00;;;;;;5012320;28;20179;-80
2023/01/19 04:32:58;;;;;;;5.47;3.97;;;0.10;1.00;;;;;;5012441;28;20183;-80
2023/01/19 04:35:24;;;;;;;4.93;3.60;;;0.10;1.00;;;;;;5010131;28;20712;-80
2023/01/19 04:37:49;;;;;;;5.53;3.57;;;0.20;1.00;;;;;;5010779;28;20611;-80
2023/01/19 04:40:15;;;;;;;4.23;3.70;;;0.20;1.00;;;;;;5012207;28;20222;-81
2023/01/19 04:42:44;;;;;;;5.50;3.80;;;0.20;1.00;;;;;;5012208;28;20188;-80
2023/01/19 04:45:12;;;;;;;5.00;3.80;;;0.10;1.00;;;;;;5011477;28;20207;-81
2023/01/19 04:47:38;;;;;;;4.87;3.83;;;0.10;1.00;;;;;;5011731;28;20180;-80
2023/01/19 04:50:04;;;;;;;5.33;3.70;;;0.10;1.00;;;;;;5010841;28;20649;-80
2023/01/19 04:52:34;;;;;;;4.67;3.50;;;0.00;1.00;;;;;;5009665;28;20250;-80
2023/01/19 04:55:01;;;;;;;5.43;3.60;;;-0.10;1.00;;;;;;5011075;28;20200;-81
2023/01/19 04:57:28;;;;;;;5.00;3.63;;;-0.10;1.00;;;;;;5011314;28;20191;-80
2023/01/19 04:59:55;;;;;;;5.40;3.50;;;-0.10;1.00;;;;;;5009242;28;20270;-79
2023/01/19 05:02:21;;;;;;;4.40;3.77;;;-0.10;1.00;;;;;;5009090;28;20230;-80
2023/01/19 05:04:47;;;;;;;7.23;4.03;;;-0.10;1.00;;;;;;5010335;28;21025;-80
2023/01/19 05:07:13;;;;;;;6.60;3.80;;;-0.10;1.00;;;;;;5010648;28;20207;-81
2023/01/19 05:09:38;;;;;;;5.57;3.80;;;-0.20;1.00;;;;;;5010126;28;20194;-80
2023/01/19 05:12:04;;;;;;;4.07;3.43;;;0.00;1.00;;;;;;5010872;28;20210;-80
2023/01/19 05:14:30;;;;;;;3.97;3.57;;;0.10;1.00;;;;;;5010541;28;20394;-80
2023/01/19 05:16:56;;;;;;;4.77;3.93;;;0.30;1.00;;;;;;5009252;28;20235;-79
2023/01/19 05:19:22;;;;;;;4.70;3.77;;;0.20;1.00;;;;;;5009969;28;20241;-81
2023/01/19 05:21:48;;;;;;;4.93;3.33;;;0.20;1.00;;;;;;5010393;28;20787;-79
2023/01/19 05:24:14;;;;;;;5.23;3.70;;;0.30;1.00;;;;;;5008892;28;20187;-81
2023/01/19 05:26:40;;;;;;;6.70;3.47;;;0.20;1.00;;;;;;5008771;28;20212;-81
2023/01/19 05:29:05;;;;;;;6.23;3.60;;;0.10;1.00;;;;;;5009454;28;20190;-81
2023/01/19 05:31:31;;;;;;;4.13;3.30;;;0.10;1.00;;;;;;5008020;28;20179;-79
2023/01/19 05:33:56;;;;;;;5.33;3.60;;;0.20;1.00;;;;;;5009535;28;20179;-79
2023/01/19 05:36:22;;;;;;;4.13;3.70;;;0.10;1.00;;;;;;5009227;28;20217;-80
2023/01/19 05:38:48;;;;;;;4.23;3.50;;;0.10;1.00;;;;;;5008720;28;20275;-80
2023/01/19 05:41:14;;;;;;;5.03;3.60;;;0.10;1.00;;;;;;5007573;28;20180;-79
2023/01/19 05:43:39;;;;;;;4.87;3.60;;;0.00;1.00;;;;;;5008696;28;20199;-79
2023/01/19 05:46:05;;;;;;;4.97;3.87;;;0.10;1.00;;;;;;5007101;28;20211;-79
2023/01/19 05:48:31;;;;;;;3.70;3.27;;;0.00;1.00;;;;;;5007584;28;20566;-78
2023/01/19 05:50:58;;;;;;;5.87;3.70;;;0.00;1.00;;;;;;5008677;28;20175;-80
2023/01/19 05:53:24;;;;;;;5.70;3.80;;;-0.10;1.00;;;;;;5006411;28;20194;-78
2023/01/19 05:55:50;;;;;;;5.53;3.63;;;0.00;1.00;;;;;;5024069;28;20207;-79
2023/01/19 05:58:15;;;;;;;7.07;3.97;;;0.00;1.00;;;;;;5007897;28;20191;-81
2023/01/19 06:00:41;;;;;;;5.23;3.67;;;0.00;1.00;;;;;;5009968;28;20310;-80
2023/01/19 06:03:07;;;;;;;6.10;3.70;;;0.00;1.00;;;;;;5007431;28;20196;-80
2023/01/19 06:05:34;;;;;;;4.77;3.47;;;-0.10;1.00;;;;;;5008206;28;20211;-80
2023/01/19 06:08:00;;;;;;;4.80;3.70;;;-0.10;1.00;;;;;;5008983;28;20174;-80
2023/01/19 06:10:26;;;;;;;6.53;3.87;;;-0.10;1.00;;;;;;5023620;28;20184;-80
2023/01/19 06:12:52;;;;;;;3.90;3.50;;;-0.10;1.00;;;;;;5007978;28;21204;-80
2023/01/19 06:15:18;;;;;;;6.30;3.90;;;0.00;1.00;;;;;;5006703;28;20207;-79
2023/01/19 06:17:44;;;;;;;4.37;3.37;;;-0.10;1.00;;;;;;5007852;28;20459;-80
2023/01/19 06:20:10;;;;;;;5.77;3.80;;;0.00;1.00;;;;;;5007250;28;20203;-80
2023/01/19 06:22:35;;;;;;;3.97;3.57;;;0.10;1.00;;;;;;5008136;28;21184;-80
2023/01/19 06:25:02;;;;;;;4.57;3.87;;;0.10;1.00;;;;;;5008146;28;20215;-80
2023/01/19 06:27:27;;;;;;;5.83;3.67;;;0.10;1.00;;;;;;5007743;28;20258;-80
2023/01/19 06:29:53;;;;;;;7.17;3.80;;;0.20;1.00;;;;;;5008091;28;20183;-80
2023/01/19 06:32:19;;;;;;;7.20;4.13;;;0.20;1.00;;;;;;5009947;28;20187;-80
2023/01/19 06:34:45;;;;;;;7.90;4.40;;;0.20;1.00;;;;;;5011558;28;20187;-80
2023/01/19 06:37:11;;;;;;;7.60;4.67;;;0.10;1.00;;;;;;5011111;28;20183;-80
2023/01/19 06:39:39;;;;;;;5.20;4.10;;;0.10;1.00;;;;;;5010924;28;20207;-79
2023/01/19 06:42:08;;;;;;;7.53;3.80;;;0.20;1.00;;;;;;5010826;28;20654;-79
2023/01/19 06:44:34;;;;;;;6.70;4.30;;;0.30;1.00;;;;;;5011248;28;20278;-80
2023/01/19 06:46:59;;;;;;;5.80;4.60;;;0.30;1.00;;;;;;5009063;28;21446;-80
2023/01/19 06:49:25;;;;;;;6.47;4.07;;;0.20;1.00;;;;;;5011820;28;20203;-81
2023/01/19 06:51:50;;;;;;;6.03;3.93;;;0.20;1.00;;;;;;5011267;28;20198;-81
2023/01/19 06:54:16;;;;;;;4.53;3.33;;;0.10;1.00;;;;;;5011352;28;20187;-81
2023/01/19 06:56:41;;;;;;;7.37;4.20;;;0.10;1.00;;;;;;5009621;28;20266;-80
2023/01/19 06:59:08;;;;;;;6.70;4.40;;;0.20;1.00;;;;;;5010134;28;20206;-80
2023/01/19 07:01:34;;;;;;;6.27;4.57;;;0.20;1.00;;;;;;5011630;28;20189;-81
2023/01/19 07:03:59;;;;;;;6.07;4.27;;;0.30;1.00;;;;;;5010081;28;20187;-80
2023/01/19 07:06:25;;;;;;;5.13;4.43;;;0.30;1.00;;;;;;5009791;28;20219;-80
2023/01/19 07:08:51;;;;;;;6.07;4.63;;;0.40;1.00;;;;;;5010140;28;20290;-81
2023/01/19 07:11:16;;;;;;;7.13;6.33;;;0.50;1.00;;;;;;5008946;28;20187;-80
2023/01/19 07:13:43;;;;;;;10.03;6.23;;;0.40;1.00;;;;;;5009796;28;20717;-80
2023/01/19 07:16:12;;;;;;;10.53;6.93;;;0.40;1.00;;;;;;5009333;28;20219;-80
2023/01/19 07:18:39;;;;;;;6.27;5.17;;;0.40;1.00;;;;;;5011087;28;20609;-80
2023/01/19 07:21:05;;;;;;;13.37;7.00;;;0.30;1.00;;;;;;5009750;28;20207;-79
2023/01/19 07:23:31;;;;;;;8.20;6.67;;;0.30;1.00;;;;;;5009814;28;20191;-80
2023/01/19 07:26:00;;;;;;;8.83;6.37;;;0.40;1.00;;;;;;5011038;28;20211;-80
2023/01/19 07:28:26;;;;;;;7.63;5.57;;;0.30;1.00;;;;;;5010102;28;20194;-79
2023/01/19 07:30:53;;;;;;;6.57;5.20;;;0.30;1.00;;;;;;5011607;28;21217;-80
2023/01/19 07:33:24;;;;;;;7.47;5.67;;;0.30;1.00;;;;;;5027114;28;20211;-79
2023/01/19 07:35:51;;;;;;;6.70;5.37;;;0.20;1.00;;;;;;5011770;28;20214;-79
2023/01/19 07:38:17;;;;;;;6.57;5.37;;;0.10;1.00;;;;;;5011659;28;20278;-80
2023/01/19 07:40:45;;;;;;;7.40;5.47;;;0.10;1.00;;;;;;5009845;28;20183;-80
2023/01/19 07:43:11;;;;;;;8.77;5.63;;;0.10;1.00;;;;;;5010982;28;20326;-80
2023/01/19 07:45:37;;;;;;;5.93;5.00;;;0.10;1.00;;;;;;5009753;28;20584;-80
2023/01/19 07:48:03;;;;;;;6.47;5.40;;;0.10;1.00;;;;;;5008912;28;20190;-80
2023/01/19 07:50:28;;;;;;;7.20;5.73;;;0.10;1.00;;;;;;5011920;28;20188;-80
2023/01/19 07:52:55;;;;;;;5.83;5.23;;;0.00;1.00;;;;;;5026471;28;20175;-81
2023/01/19 07:55:22;;;;;;;7.57;5.67;;;0.00;1.00;;;;;;5023704;28;20219;-80
2023/01/19 07:57:51;;;;;;;6.77;5.33;;;0.00;1.00;;;;;;5009157;28;20234;-79
2023/01/19 08:00:23;;;;;;;6.97;4.80;;;0.00;1.00;;;;;;5008249;28;20187;-80
2023/01/19 08:02:57;;;;;;;6.00;4.67;;;0.00;1.00;;;;;;5009268;28;20188;-80
2023/01/19 08:05:22;;;;;;;9.70;7.23;;;-0.10;1.00;;;;;;5011720;28;20716;-80
2023/01/19 08:07:48;;;;;;;10.57;6.57;;;-0.10;1.00;;;;;;5011647;28;20193;-80
2023/01/19 08:10:15;;;;;;;10.17;9.00;;;-0.20;1.00;;;;;;5011793;28;20184;-80
2023/01/19 08:12:41;;;;;;;6.40;5.70;;;-0.20;1.00;;;;;;5010193;28;20275;-80
2023/01/19 08:15:08;;;;;;;9.77;6.80;;;-0.20;1.00;;;;;;5011692;28;20211;-80
2023/01/19 08:17:34;;;;;;;94.27;25.53;;;-0.20;1.00;;;;;;5010140;28;20195;-79
2023/01/19 08:19:59;;;;;;;56.53;23.03;;;-0.30;1.00;;;;;;5010089;28;20207;-80
2023/01/19 08:22:25;;;;;;;43.20;18.00;;;-0.30;1.00;;;;;;5010332;28;20200;-80
2023/01/19 08:24:50;;;;;;;9.20;6.83;;;-0.20;1.00;;;;;;5010534;28;20192;-80
2023/01/19 08:27:16;;;;;;;11.10;6.27;;;-0.20;1.00;;;;;;5007605;28;21157;-80
2023/01/19 08:29:42;;;;;;;10.20;6.63;;;-1.10;1.00;;;;;;5009094;28;20172;-80
2023/01/19 08:32:08;;;;;;;9.07;6.53;;;-0.20;1.00;;;;;;5010670;28;20681;-79
2023/01/19 08:34:33;;;;;;;8.90;6.20;;;0.20;1.00;;;;;;5009826;28;20195;-80
2023/01/19 08:36:59;;;;;;;6.80;5.30;;;0.40;1.00;;;;;;5008303;28;20270;-79
2023/01/19 08:39:24;;;;;;;8.60;6.33;;;0.50;1.00;;;;;;5005599;28;20192;-79
2023/01/19 08:41:51;;;;;;;7.43;5.40;;;0.70;1.00;;;;;;5005378;28;20246;-78
2023/01/19 08:44:17;;;;;;;9.53;5.30;;;0.80;1.00;;;;;;5005234;28;20700;-79
2023/01/19 08:46:43;;;;;;;9.07;5.37;;;1.10;1.00;;;;;;5005730;28;20207;-80
2023/01/19 08:49:09;;;;;;;6.90;4.87;;;1.20;1.00;;;;;;5003685;28;20184;-77
2023/01/19 08:51:35;;;;;;;8.30;4.70;;;1.30;1.00;;;;;;5005128;28;20192;-80
2023/01/19 08:54:00;;;;;;;6.93;4.47;;;1.40;1.00;;;;;;5004293;28;20547;-81
2023/01/19 08:56:26;;;;;;;5.73;3.90;;;1.50;1.00;;;;;;5004252;28;20322;-80
2023/01/19 08:58:52;;;;;;;6.83;4.50;;;1.60;1.00;;;;;;5005139;28;20262;-78
2023/01/19 09:01:19;;;;;;;6.73;3.90;;;1.70;1.00;;;;;;5004908;28;20183;-79
2023/01/19 09:03:45;;;;;;;3.73;3.37;;;1.90;1.00;;;;;;5000298;28;20198;-78
2023/01/19 09:06:15;;;;;;;4.47;3.70;;;2.00;1.00;;;;;;5003319;28;20211;-80
2023/01/19 09:08:41;;;;;;;5.30;3.17;;;2.10;1.00;;;;;;5005658;28;20172;-82
2023/01/19 09:11:11;;;;;;;4.97;4.10;;;2.10;1.00;;;;;;5005219;28;20179;-79
2023/01/19 09:13:38;;;;;;;6.80;4.10;;;2.10;1.00;;;;;;5005915;28;20175;-80
2023/01/19 09:16:06;;;;;;;6.53;4.03;;;2.10;1.00;;;;;;5009395;28;20234;-78
2023/01/19 09:18:33;;;;;;;5.93;3.43;;;2.20;1.00;;;;;;5007721;28;20187;-78
2023/01/19 09:21:00;;;;;;;6.20;3.47;;;2.20;1.00;;;;;;5010652;28;20220;-77
2023/01/19 09:23:26;;;;;;;5.27;3.57;;;2.10;1.00;;;;;;5008463;28;20187;-76
2023/01/19 09:26:00;;;;;;;4.93;3.70;;;2.00;1.00;;;;;;5008811;28;20742;-76
2023/01/19 09:28:28;;;;;;;6.33;3.40;;;2.00;1.00;;;;;;5008005;28;20183;-77
2023/01/19 09:30:53;;;;;;;3.53;3.13;;;1.90;1.00;;;;;;5006662;28;20207;-76
2023/01/19 09:33:19;;;;;;;5.40;3.27;;;1.90;1.00;;;;;;5008865;28;20218;-77
2023/01/19 09:35:47;;;;;;;6.30;3.70;;;1.90;1.00;;;;;;5009894;28;20199;-77
2023/01/19 09:38:15;;;;;;;4.47;3.60;;;2.00;1.00;;;;;;5013259;28;20188;-77
2023/01/19 09:40:43;;;;;;;7.07;3.87;;;2.00;1.00;;;;;;5011524;28;20187;-77
2023/01/19 09:43:18;;;;;;;5.77;3.27;;;2.10;1.00;;;;;;5011382;28;20191;-77
2023/01/19 09:46:11;;;;;;;5.33;3.43;;;2.20;1.00;;;;;;5006709;28;20207;-76
2023/01/19 09:48:50;;;;;;;4.07;3.33;;;2.30;1.00;;;;;;5007475;28;20184;-77
2023/01/19 09:51:23;;;;;;;4.13;3.00;;;2.40;1.00;;;;;;5007377;28;20259;-77
2023/01/19 09:54:01;;;;;;;4.97;3.50;;;2.50;1.00;;;;;;5007352;28;20234;-77
2023/01/19 09:56:27;;;;;;;5.63;3.50;;;2.50;1.00;;;;;;5006508;28;20594;-76
2023/01/19 09:58:53;;;;;;;4.87;3.87;;;2.60;1.00;;;;;;5006461;28;20253;-77
2023/01/19 10:01:18;;;;;;;6.63;3.83;;;2.70;1.00;;;;;;5005404;28;20183;-76
2023/01/19 10:03:44;;;;;;;6.90;4.10;;;2.80;1.00;;;;;;5007654;28;20270;-78
2023/01/19 10:06:13;;;;;;;6.07;4.10;;;2.70;1.00;;;;;;5009623;28;20926;-79
2023/01/19 10:08:55;;;;;;;6.10;4.57;;;2.60;1.00;;;;;;5010847;28;20192;-78
2023/01/19 10:11:35;;;;;;;5.20;3.60;;;2.60;1.00;;;;;;5012720;28;20260;-76
2023/01/19 10:14:08;;;;;;;5.77;3.97;;;2.50;1.00;;;;;;5012010;28;20179;-76
2023/01/19 10:16:40;;;;;;;5.73;4.60;;;2.50;1.00;;;;;;5014290;28;20223;-78
2023/01/19 10:19:36;;;;;;;5.87;4.23;;;2.50;1.00;;;;;;5028623;28;20207;-76
2023/01/19 10:22:24;;;;;;;8.30;6.00;;;2.50;1.00;;;;;;5011869;28;20188;-78
2023/01/19 10:25:00;;;;;;;3.97;3.40;;;2.50;1.00;;;;;;5009165;28;20306;-76
2023/01/19 10:27:29;;;;;;;5.80;4.03;;;2.50;1.00;;;;;;5011271;28;20595;-77
2023/01/19 10:29:56;;;;;;;4.17;3.63;;;2.50;1.00;;;;;;5013442;28;20190;-78
2023/01/19 10:32:32;;;;;;;5.37;4.23;;;2.50;1.00;;;;;;5014256;28;20187;-75
2023/01/19 10:34:58;;;;;;;5.47;4.30;;;2.40;1.00;;;;;;5010926;28;20251;-78
2023/01/19 10:37:31;;;;;;;8.27;4.33;;;2.40;1.00;;;;;;5013493;28;20187;-75
2023/01/19 10:40:20;;;;;;;6.57;4.47;;;2.40;1.00;;;;;;5010630;28;20180;-76
2023/01/19 10:42:46;;;;;;;4.63;3.90;;;2.40;1.00;;;;;;5012642;28;20267;-76
2023/01/19 10:45:19;;;;;;;6.17;4.10;;;2.40;1.00;;;;;;5015254;28;20227;-75
2023/01/19 10:47:47;;;;;;;4.73;3.90;;;2.30;1.00;;;;;;5015420;28;20187;-78
2023/01/19 10:50:27;;;;;;;8.30;5.70;;;2.30;1.00;;;;;;5014568;28;20191;-76
2023/01/19 10:52:56;;;;;;;8.60;6.77;;;2.20;1.00;;;;;;5013025;28;20195;-76
2023/01/19 10:55:34;;;;;;;7.37;6.00;;;2.20;1.00;;;;;;5014013;28;20208;-78
2023/01/19 10:58:00;;;;;;;7.70;6.10;;;2.10;1.00;;;;;;5014217;28;20266;-77
2023/01/19 11:00:42;;;;;;;4.90;4.37;;;2.10;1.00;;;;;;5014253;28;20184;-79
2023/01/19 11:03:30;;;;;;;7.03;5.17;;;2.10;1.00;;;;;;5016100;28;20187;-78
2023/01/19 11:06:17;;;;;;;6.37;4.30;;;2.10;1.00;;;;;;5014313;28;20290;-78
2023/01/19 11:08:44;;;;;;;5.00;4.50;;;2.10;1.00;;;;;;5015667;28;20186;-79
2023/01/19 11:11:11;;;;;;;6.10;4.33;;;2.20;1.00;;;;;;5015245;28;20214;-76
2023/01/19 11:13:41;;;;;;;5.43;4.20;;;2.20;1.00;;;;;;5014683;28;20544;-79
2023/01/19 11:16:29;;;;;;;4.33;3.57;;;2.20;1.00;;;;;;5011016;28;20223;-78
2023/01/19 11:18:57;;;;;;;4.50;3.87;;;0.10;1.00;;;;;;5011543;28;20219;-79
2023/01/19 11:21:27;;;;;;;4.40;3.33;;;2.30;1.00;;;;;;5013166;28;20234;-77
2023/01/19 11:23:58;;;;;;;3.97;3.27;;;2.30;1.00;;;;;;5006601;28;20267;-77
2023/01/19 11:26:33;;;;;;;5.00;3.40;;;2.30;1.00;;;;;;5008168;28;20224;-78
2023/01/19 11:29:00;;;;;;;3.50;3.20;;;2.30;1.00;;;;;;5009240;28;20182;-77
2023/01/19 11:31:32;;;;;;;3.90;3.50;;;2.30;1.00;;;;;;5008713;28;20554;-78
2023/01/19 11:34:03;;;;;;;3.67;3.20;;;2.30;1.00;;;;;;5010326;28;20188;-77
2023/01/19 11:36:38;;;;;;;4.27;3.43;;;2.30;1.00;;;;;;5008451;28;20211;-76
2023/01/19 11:39:26;;;;;;;4.50;3.10;;;2.30;1.00;;;;;;5011883;28;21045;-78
2023/01/19 11:42:01;;;;;;;4.20;3.40;;;2.40;1.00;;;;;;5011169;28;20188;-78
2023/01/19 11:44:32;;;;;;;3.63;2.93;;;2.40;1.00;;;;;;5014698;28;20283;-77
2023/01/19 11:47:10;;;;;;;3.77;3.20;;;2.50;1.00;;;;;;5010126;28;20255;-78
2023/01/19 11:50:04;;;;;;;3.40;3.00;;;2.60;1.00;;;;;;5008938;28;21061;-76
2023/01/19 11:52:40;;;;;;;3.93;3.07;;;2.60;1.00;;;;;;5009226;28;20253;-78
2023/01/19 11:55:31;;;;;;;3.37;3.07;;;2.50;1.00;;;;;;5009146;28;21101;-78
2023/01/19 11:57:57;;;;;;;4.97;3.60;;;2.60;1.00;;;;;;5009521;28;20192;-77
2023/01/19 12:00:30;;;;;;;4.97;3.20;;;2.60;1.00;;;;;;5008695;28;20183;-76
2023/01/19 12:03:17;;;;;;;3.90;3.30;;;2.60;1.00;;;;;;5009357;28;20259;-77
2023/01/19 12:05:48;;;;;;;4.27;3.60;;;2.50;1.00;;;;;;5009032;28;20208;-77
2023/01/19 12:08:32;;;;;;;3.53;3.23;;;2.50;1.00;;;;;;5007927;28;20207;-77
2023/01/19 12:11:00;;;;;;;4.60;3.90;;;2.40;1.00;;;;;;5009552;28;20559;-76
2023/01/19 12:13:27;;;;;;;4.37;3.80;;;2.40;1.00;;;;;;5008837;28;20188;-76
2023/01/19 12:16:11;;;;;;;3.87;3.47;;;2.40;1.00;;;;;;5008357;28;20224;-77
2023/01/19 12:18:47;;;;;;;4.63;3.70;;;2.40;1.00;;;;;;5008324;28;20198;-76
2023/01/19 12:21:13;;;;;;;4.40;3.70;;;2.40;1.00;;;;;;5010535;28;20195;-77
2023/01/19 12:23:38;;;;;;;3.80;3.47;;;2.40;1.00;;;;;;5008190;28;20203;-77
2023/01/19 12:26:35;;;;;;;4.20;3.80;;;2.40;1.00;;;;;;5008590;28;20204;-75
2023/01/19 12:29:10;;;;;;;3.90;3.50;;;2.40;1.00;;;;;;5007546;28;20173;-77
2023/01/19 12:31:37;;;;;;;5.57;3.67;;;2.40;1.00;;;;;;5009911;28;20183;-77
2023/01/19 12:34:24;;;;;;;4.77;4.10;;;2.50;1.00;;;;;;5010149;28;20176;-77
2023/01/19 12:36:51;;;;;;;4.00;3.60;;;2.50;1.00;;;;;;5009777;28;20206;-78
2023/01/19 12:39:22;;;;;;;4.17;3.77;;;2.50;1.00;;;;;;5011429;28;20199;-77
2023/01/19 12:42:10;;;;;;;4.43;3.90;;;2.50;1.00;;;;;;5013333;28;20192;-77
2023/01/19 12:44:35;;;;;;;4.83;4.17;;;2.50;1.00;;;;;;5011256;28;20559;-77
2023/01/19 12:47:18;;;;;;;4.53;3.93;;;2.60;1.00;;;;;;5012199;28;20207;-77
2023/01/19 12:49:58;;;;;;;4.03;3.57;;;2.60;1.00;;;;;;5010562;28;20175;-78
2023/01/19 12:52:33;;;;;;;4.17;3.77;;;2.60;1.00;;;;;;5009558;28;20234;-76
2023/01/19 12:55:02;;;;;;;5.67;4.53;;;2.60;1.00;;;;;;5009424;28;20333;-78
2023/01/19 12:57:37;;;;;;;4.73;3.70;;;2.60;1.00;;;;;;5009879;28;20179;-77
2023/01/19 13:00:07;;;;;;;4.13;3.73;;;2.50;1.00;;;;;;5010852;28;20273;-78
2023/01/19 13:02:43;;;;;;;4.37;3.57;;;2.60;1.00;;;;;;5023753;28;20987;-76
2023/01/19 13:05:20;;;;;;;4.33;3.57;;;2.50;1.00;;;;;;5009317;28;20219;-78
2023/01/19 13:08:04;;;;;;;3.90;3.50;;;2.60;1.00;;;;;;5010333;28;20218;-77
2023/01/19 13:10:51;;;;;;;4.63;3.43;;;2.50;1.00;;;;;;5010705;28;20206;-77
2023/01/19 13:13:21;;;;;;;3.73;3.40;;;2.50;1.00;;;;;;5010338;28;20740;-78
2023/01/19 13:15:48;;;;;;;3.80;3.50;;;2.50;1.00;;;;;;5008897;28;20323;-78
2023/01/19 13:18:40;;;;;;;4.23;3.60;;;2.40;1.00;;;;;;5010179;28;20927;-78
2023/01/19 13:21:08;;;;;;;4.27;3.57;;;2.40;1.00;;;;;;5006868;28;20982;-78
2023/01/19 13:23:48;;;;;;;3.90;3.50;;;2.40;1.00;;;;;;5006988;28;20194;-78
2023/01/19 13:26:32;;;;;;;5.17;3.73;;;2.40;1.00;;;;;;5006569;28;20211;-76